createdAt,value
2019-03-05T00:00:41.975Z,100201.97
2019-03-05T00:03:11.015Z,100201.72
2019-03-05T00:05:40.423Z,100201.89
2019-03-05T00:08:10.193Z,100194.19
2019-03-05T00:10:39.786Z,100207.94
2019-03-05T00:13:09.166Z,100212.30
2019-03-05T00:15:38.171Z,100206.97
2019-03-05T00:18:07.234Z,100207.34
2019-03-05T00:20:36.724Z,100217.08
2019-03-05T00:23:08.243Z,100203.79
2019-03-05T00:25:36.990Z,100200.41
2019-03-05T00:28:16.607Z,100196.25
2019-03-05T00:30:49.271Z,100207.85
2019-03-05T00:34:01.546Z,100209.92
2019-03-05T00:37:00.857Z,100216.28
2019-03-05T00:40:00.990Z,100222.58
2019-03-05T00:43:04.705Z,100214.67
2019-03-05T00:45:59.903Z,100202.45
2019-03-05T00:48:51.359Z,100198.88
2019-03-05T00:51:33.216Z,100206.16
2019-03-05T00:54:50.971Z,100209.19
2019-03-05T00:57:48.291Z,100209.95
2019-03-05T01:00:40.093Z,100211.28
2019-03-05T01:03:50.339Z,100209.29
2019-03-05T01:06:21.563Z,100209.57
2019-03-05T01:08:50.945Z,100213.28
2019-03-05T01:11:20.986Z,100213.28
2019-03-05T01:13:50.140Z,100213.17
2019-03-05T01:16:22.582Z,100213.70
2019-03-05T01:18:51.577Z,100216.80
2019-03-05T01:21:20.608Z,100220.22
2019-03-05T01:23:50.019Z,100229.00
2019-03-05T01:26:19.046Z,100232.23
2019-03-05T01:28:48.036Z,100231.75
2019-03-05T01:31:36.152Z,100229.88
2019-03-05T01:34:17.341Z,100235.94
2019-03-05T01:36:50.140Z,100235.22
2019-03-05T01:39:43.097Z,100235.14
2019-03-05T01:42:12.412Z,100240.45
2019-03-05T01:44:41.416Z,100246.20
2019-03-05T01:47:10.475Z,100245.55
2019-03-05T01:49:39.508Z,100248.60
2019-03-05T01:52:08.626Z,100243.58
2019-03-05T01:54:37.983Z,100245.94
2019-03-05T01:57:07.039Z,100248.50
2019-03-05T01:59:36.119Z,100239.17
2019-03-05T02:02:05.565Z,100231.58
2019-03-05T02:04:34.605Z,100227.87
2019-03-05T02:07:03.757Z,100231.88
2019-03-05T02:09:32.953Z,100233.22
2019-03-05T02:12:02.693Z,100218.79
2019-03-05T02:14:32.004Z,100227.53
2019-03-05T02:17:01.004Z,100227.16
2019-03-05T02:19:42.614Z,100224.86
2019-03-05T02:22:27.736Z,100226.17
2019-03-05T02:25:29.271Z,100216.73
2019-03-05T02:28:24.933Z,100214.19
2019-03-05T02:31:08.860Z,100206.35
2019-03-05T02:33:59.575Z,100219.11
2019-03-05T02:36:57.604Z,100219.81
2019-03-05T02:39:57.998Z,100224.38
2019-03-05T02:43:20.299Z,100221.47
2019-03-05T02:46:24.079Z,100219.28
2019-03-05T02:49:45.758Z,100217.66
2019-03-05T02:52:23.189Z,100207.63
2019-03-05T02:55:25.554Z,100211.85
2019-03-05T02:57:53.091Z,100207.88
2019-03-05T03:00:34.213Z,100207.80
2019-03-05T03:03:10.039Z,100210.14
2019-03-05T03:05:54.321Z,100216.16
2019-03-05T03:08:23.369Z,100206.06
2019-03-05T03:10:52.698Z,100204.09
2019-03-05T03:13:22.074Z,100198.12
2019-03-05T03:15:51.121Z,100195.03
2019-03-05T03:18:20.132Z,100191.33
2019-03-05T03:20:49.314Z,100198.19
2019-03-05T03:23:18.373Z,100209.19
2019-03-05T03:25:47.378Z,100215.55
2019-03-05T03:28:16.408Z,100210.75
2019-03-05T03:30:45.423Z,100203.81
2019-03-05T03:33:14.939Z,100206.55
2019-03-05T03:35:44.347Z,100203.89
2019-03-05T03:38:13.708Z,100196.51
2019-03-05T03:40:42.809Z,100197.09
2019-03-05T03:43:12.280Z,100199.03
2019-03-05T03:45:41.601Z,100199.59
2019-03-05T03:48:10.972Z,100206.08
2019-03-05T03:50:40.101Z,100204.62
2019-03-05T03:53:09.150Z,100197.28
2019-03-05T03:55:38.274Z,100186.58
2019-03-05T03:58:07.365Z,100198.33
2019-03-05T04:00:36.388Z,100202.11
2019-03-05T04:03:05.821Z,100199.84
2019-03-05T04:05:34.823Z,100209.81
2019-03-05T04:08:03.969Z,100205.17
2019-03-05T04:10:33.447Z,100211.73
2019-03-05T04:13:02.509Z,100206.87
2019-03-05T04:15:31.531Z,100208.80
2019-03-05T04:18:00.930Z,100214.38
2019-03-05T04:20:33.601Z,100211.96
2019-03-05T04:23:03.088Z,100220.61
2019-03-05T04:25:32.535Z,100229.96
2019-03-05T04:28:01.592Z,100228.34
2019-03-05T04:30:30.614Z,100219.52
2019-03-05T04:32:59.676Z,100228.89
2019-03-05T04:35:28.698Z,100230.59
2019-03-05T04:37:58.037Z,100238.95
2019-03-05T04:40:27.413Z,100222.31
2019-03-05T04:42:56.565Z,100225.75
2019-03-05T04:45:35.990Z,100222.06
2019-03-05T04:48:05.124Z,100219.91
2019-03-05T04:51:08.241Z,100212.28
2019-03-05T04:53:37.632Z,100216.17
2019-03-05T04:56:06.685Z,100216.43
2019-03-05T04:58:35.757Z,100222.23
2019-03-05T05:01:05.017Z,100220.16
2019-03-05T05:03:34.032Z,100221.92
2019-03-05T05:06:03.080Z,100219.87
2019-03-05T05:08:32.174Z,100216.47
2019-03-05T05:11:01.542Z,100212.31
2019-03-05T05:13:30.926Z,100212.55
2019-03-05T05:16:00.218Z,100202.77
2019-03-05T05:18:29.678Z,100213.88
2019-03-05T05:20:58.715Z,100216.36
2019-03-05T05:23:28.090Z,100219.95
2019-03-05T05:25:57.116Z,100222.99
2019-03-05T05:28:26.370Z,100213.14
2019-03-05T05:30:55.427Z,100216.43
2019-03-05T05:33:24.522Z,100200.80
2019-03-05T05:35:53.562Z,100221.27
2019-03-05T05:38:22.652Z,100221.84
2019-03-05T05:40:51.710Z,100224.32
2019-03-05T05:43:24.074Z,100231.92
2019-03-05T05:45:53.338Z,100229.91
2019-03-05T05:48:22.363Z,100230.33
2019-03-05T05:50:51.417Z,100239.30
2019-03-05T05:53:20.447Z,100236.16
2019-03-05T05:55:49.916Z,100239.59
2019-03-05T05:58:18.990Z,100232.92
2019-03-05T06:00:51.002Z,100232.74
2019-03-05T06:03:20.259Z,100226.59
2019-03-05T06:05:49.761Z,100233.48
2019-03-05T06:08:19.262Z,100248.54
2019-03-05T06:10:48.996Z,100234.17
2019-03-05T06:13:18.330Z,100238.25
2019-03-05T06:15:47.452Z,100222.88
2019-03-05T06:18:16.869Z,100231.73
2019-03-05T06:20:46.028Z,100232.06
2019-03-05T06:23:15.194Z,100230.55
2019-03-05T06:25:44.841Z,100236.92
2019-03-05T06:28:14.652Z,100233.15
2019-03-05T06:30:43.798Z,100241.73
2019-03-05T06:33:13.370Z,100255.53
2019-03-05T06:35:42.452Z,100258.34
2019-03-05T06:38:12.465Z,100259.26
2019-03-05T06:40:41.474Z,100264.59
2019-03-05T06:43:10.878Z,100267.87
2019-03-05T06:45:40.286Z,100265.99
2019-03-05T06:48:09.330Z,100274.81
2019-03-05T06:50:38.452Z,100262.01
2019-03-05T06:53:07.506Z,100266.79
2019-03-05T06:55:36.971Z,100264.22
2019-03-05T06:58:06.767Z,100265.47
2019-03-05T07:00:37.522Z,100274.42
2019-03-05T07:03:07.277Z,100262.56
2019-03-05T07:06:11.693Z,100271.06
2019-03-05T07:08:43.962Z,100277.17
2019-03-05T07:11:26.947Z,100283.53
2019-03-05T07:13:56.295Z,100285.47
2019-03-05T07:16:57.544Z,100285.27
2019-03-05T07:19:42.815Z,100288.72
2019-03-05T07:22:25.179Z,100299.61
2019-03-05T07:24:54.283Z,100308.34
2019-03-05T07:27:34.945Z,100306.69
2019-03-05T07:30:23.901Z,100306.04
2019-03-05T07:32:53.875Z,100302.94
2019-03-05T07:35:25.559Z,100294.28
2019-03-05T07:37:54.914Z,100297.91
2019-03-05T07:40:24.273Z,100301.90
2019-03-05T07:42:53.736Z,100311.56
2019-03-05T07:45:23.094Z,100303.91
2019-03-05T07:47:52.177Z,100307.64
2019-03-05T07:50:21.267Z,100314.12
2019-03-05T07:52:50.616Z,100305.00
2019-03-05T07:55:19.641Z,100304.18
2019-03-05T07:57:48.693Z,100312.10
2019-03-05T08:00:21.863Z,100305.56
2019-03-05T08:02:51.425Z,100307.31
2019-03-05T08:05:20.610Z,100309.16
2019-03-05T08:07:49.798Z,100311.80
2019-03-05T08:10:32.777Z,100318.53
2019-03-05T08:13:19.191Z,100322.56
2019-03-05T08:16:18.700Z,100333.98
2019-03-05T08:18:47.727Z,100329.35
2019-03-05T08:21:16.910Z,100335.81
2019-03-05T08:23:48.325Z,100345.84
2019-03-05T08:26:16.850Z,100350.92
2019-03-05T08:28:45.910Z,100342.84
2019-03-05T08:31:14.970Z,100355.25
2019-03-05T08:33:44.047Z,100364.11
2019-03-05T08:36:13.106Z,100363.56
2019-03-05T08:38:42.301Z,100361.36
2019-03-05T08:41:11.688Z,100366.08
2019-03-05T08:43:41.090Z,100362.05
2019-03-05T08:46:10.184Z,100364.12
2019-03-05T08:48:39.284Z,100373.85
2019-03-05T08:51:08.527Z,100375.81
2019-03-05T08:53:49.019Z,100375.19
2019-03-05T08:56:08.677Z,100379.05
2019-03-05T08:58:38.116Z,100375.00
2019-03-05T09:01:07.804Z,100381.52
2019-03-05T09:03:37.248Z,100380.84
2019-03-05T09:06:06.321Z,100388.75
2019-03-05T09:08:35.367Z,100382.75
2019-03-05T09:11:05.715Z,100391.09
2019-03-05T09:13:34.989Z,100382.56
2019-03-05T09:16:04.228Z,100393.48
2019-03-05T09:18:33.657Z,100388.39
2019-03-05T09:21:03.163Z,100384.05
2019-03-05T09:23:32.200Z,100382.55
2019-03-05T09:26:01.604Z,100381.69
2019-03-05T09:28:31.299Z,100385.28
2019-03-05T09:31:00.368Z,100387.16
2019-03-05T09:33:29.787Z,100404.18
2019-03-05T09:35:58.837Z,100395.12
2019-03-05T09:38:28.257Z,100405.93
2019-03-05T09:40:57.901Z,100398.69
2019-03-05T09:43:26.958Z,100398.95
2019-03-05T09:45:56.463Z,100397.16
2019-03-05T09:48:25.536Z,100404.16
2019-03-05T09:50:54.626Z,100401.44
2019-03-05T09:53:23.709Z,100404.52
2019-03-05T09:55:52.766Z,100404.84
2019-03-05T09:58:21.848Z,100400.72
2019-03-05T10:00:50.923Z,100410.30
2019-03-05T10:03:20.138Z,100409.95
2019-03-05T10:05:49.497Z,100413.99
2019-03-05T10:08:19.055Z,100406.59
2019-03-05T10:10:48.138Z,100415.92
2019-03-05T10:13:17.366Z,100421.36
2019-03-05T10:15:46.816Z,100414.98
2019-03-05T10:18:15.975Z,100422.88
2019-03-05T10:20:45.303Z,100423.39
2019-03-05T10:23:14.964Z,100418.88
2019-03-05T10:25:44.025Z,100416.52
2019-03-05T10:28:13.153Z,100426.08
2019-03-05T10:30:43.839Z,100428.47
2019-03-05T10:33:16.054Z,100432.67
2019-03-05T10:35:45.338Z,100434.77
2019-03-05T10:38:14.475Z,100431.98
2019-03-05T10:40:44.379Z,100430.57
2019-03-05T10:43:14.257Z,100440.58
2019-03-05T10:45:45.215Z,100440.58
2019-03-05T10:48:15.833Z,100438.66
2019-03-05T10:50:45.263Z,100451.95
2019-03-05T10:53:14.640Z,100444.80
2019-03-05T10:55:43.825Z,100456.85
2019-03-05T10:58:14.206Z,100449.66
2019-03-05T11:00:44.449Z,100452.48
2019-03-05T11:03:14.021Z,100458.65
2019-03-05T11:05:43.253Z,100450.42
2019-03-05T11:08:17.199Z,100448.86
2019-03-05T11:10:46.540Z,100457.93
2019-03-05T11:13:15.589Z,100448.72
2019-03-05T11:15:46.118Z,100446.19
2019-03-05T11:18:15.489Z,100457.37
2019-03-05T11:20:44.582Z,100450.91
2019-03-05T11:23:13.784Z,100452.05
2019-03-05T11:25:43.432Z,100458.39
2019-03-05T11:28:12.463Z,100466.63
2019-03-05T11:30:41.892Z,100457.09
2019-03-05T11:33:10.940Z,100464.71
2019-03-05T11:35:40.355Z,100461.84
2019-03-05T11:38:09.372Z,100455.81
2019-03-05T11:40:38.575Z,100462.97
2019-03-05T11:43:10.259Z,100470.22
2019-03-05T11:45:40.106Z,100464.92
2019-03-05T11:48:09.234Z,100477.41
2019-03-05T11:50:38.369Z,100485.56
2019-03-05T11:53:08.365Z,100473.06
2019-03-05T11:55:37.416Z,100474.77
2019-03-05T11:58:06.414Z,100474.58
2019-03-05T12:00:41.329Z,100476.17
2019-03-05T12:03:10.669Z,100480.38
2019-03-05T12:05:40.027Z,100476.42
2019-03-05T12:08:09.417Z,100471.21
2019-03-05T12:10:38.780Z,100483.23
2019-03-05T12:13:07.800Z,100484.02
2019-03-05T12:15:37.143Z,100489.22
2019-03-05T12:18:06.199Z,100478.10
2019-03-05T12:20:35.292Z,100486.70
2019-03-05T12:23:06.640Z,100483.88
2019-03-05T12:25:36.128Z,100485.30
2019-03-05T12:28:10.301Z,100494.55
2019-03-05T12:30:37.819Z,100492.98
2019-03-05T12:33:07.122Z,100497.12
2019-03-05T12:35:36.457Z,100492.28
2019-03-05T12:38:06.208Z,100495.34
2019-03-05T12:40:35.732Z,100493.36
2019-03-05T12:43:05.041Z,100519.48
2019-03-05T12:45:35.390Z,100490.67
2019-03-05T12:48:05.646Z,100500.95
2019-03-05T12:50:35.223Z,100505.22
2019-03-05T12:53:04.619Z,100509.16
2019-03-05T12:55:33.725Z,100506.42
2019-03-05T12:58:03.126Z,100510.66
2019-03-05T13:00:32.429Z,100514.88
2019-03-05T13:03:01.581Z,100516.98
2019-03-05T13:05:30.945Z,100524.45
2019-03-05T13:08:00.199Z,100522.42
2019-03-05T13:10:35.246Z,100525.47
2019-03-05T13:13:00.539Z,100526.27
2019-03-05T13:15:30.619Z,100525.38
2019-03-05T13:17:59.771Z,100530.16
2019-03-05T13:20:28.943Z,100535.09
2019-03-05T13:22:58.199Z,100527.84
2019-03-05T13:25:28.711Z,100525.27
2019-03-05T13:28:02.255Z,100528.63
2019-03-05T13:30:29.271Z,100523.98
2019-03-05T13:32:59.027Z,100528.52
2019-03-05T13:35:30.316Z,100531.30
2019-03-05T13:38:03.250Z,100529.15
2019-03-05T13:40:34.136Z,100531.34
2019-03-05T13:43:02.567Z,100525.59
2019-03-05T13:45:31.705Z,100530.17
2019-03-05T13:48:28.343Z,100536.73
2019-03-05T13:51:32.813Z,100543.91
2019-03-05T13:54:51.869Z,100531.02
2019-03-05T13:58:01.535Z,100529.53
2019-03-05T14:00:30.880Z,100531.67
2019-03-05T14:03:20.738Z,100530.58
2019-03-05T14:06:25.037Z,100553.39
2019-03-05T14:09:21.491Z,100544.02
2019-03-05T14:11:51.601Z,100534.34
2019-03-05T14:14:28.185Z,100541.03
2019-03-05T14:17:02.897Z,100539.45
2019-03-05T14:19:31.960Z,100543.43
2019-03-05T14:22:01.651Z,100540.84
2019-03-05T14:24:30.655Z,100554.05
2019-03-05T14:26:59.773Z,100551.05
2019-03-05T14:29:29.434Z,100552.77
2019-03-05T14:31:58.560Z,100538.54
2019-03-05T14:34:27.645Z,100538.54
2019-03-05T14:36:56.650Z,100549.69
2019-03-05T14:39:29.118Z,100550.81
2019-03-05T14:41:58.375Z,100553.20
2019-03-05T14:44:39.103Z,100550.92
2019-03-05T14:47:00.021Z,100551.55
2019-03-05T14:49:29.390Z,100550.89
2019-03-05T14:51:58.493Z,100551.23
2019-03-05T14:54:27.660Z,100549.77
2019-03-05T14:56:56.746Z,100558.80
2019-03-05T14:59:25.789Z,100553.80
2019-03-05T15:01:54.883Z,100552.22
2019-03-05T15:04:24.364Z,100552.57
2019-03-05T15:06:53.451Z,100547.97
2019-03-05T15:09:22.782Z,100548.78
2019-03-05T15:11:51.951Z,100548.16
2019-03-05T15:14:20.957Z,100546.67
2019-03-05T15:16:50.248Z,100543.98
2019-03-05T15:19:21.682Z,100547.97
2019-03-05T15:21:50.700Z,100548.98
2019-03-05T15:24:19.854Z,100545.42
2019-03-05T15:26:49.067Z,100545.01
2019-03-05T15:29:19.596Z,100544.05
2019-03-05T15:31:48.950Z,100547.34
2019-03-05T15:34:19.385Z,100549.61
2019-03-05T15:36:51.916Z,100546.31
2019-03-05T15:39:19.174Z,100546.69
2019-03-05T15:41:48.575Z,100523.17
2019-03-05T15:44:17.896Z,100533.31
2019-03-05T15:46:47.248Z,100529.19
2019-03-05T15:49:16.476Z,100543.16
2019-03-05T15:51:45.604Z,100543.16
2019-03-05T15:54:14.645Z,100550.84
2019-03-05T15:56:43.675Z,100534.88
2019-03-05T15:59:13.371Z,100534.88
2019-03-05T16:01:44.092Z,100548.97
2019-03-05T16:04:13.123Z,100528.94
2019-03-05T16:06:42.373Z,100528.94
2019-03-05T16:09:19.789Z,100542.56
2019-03-05T16:11:48.976Z,100536.59
2019-03-05T16:14:18.313Z,100547.27
2019-03-05T16:16:51.628Z,100547.27
2019-03-05T16:19:18.475Z,100525.54
2019-03-05T16:21:47.552Z,100541.04
2019-03-05T16:24:18.178Z,100546.13
2019-03-05T16:26:47.132Z,100545.84
2019-03-05T16:29:20.151Z,100548.97
2019-03-05T16:32:03.383Z,100551.86
2019-03-05T16:34:38.186Z,100539.91
2019-03-05T16:37:24.816Z,100546.09
2019-03-05T16:40:19.581Z,100549.73
2019-03-05T16:43:25.949Z,100539.38
2019-03-05T16:46:19.580Z,100551.78
2019-03-05T16:48:56.154Z,100551.78
2019-03-05T16:51:33.425Z,100551.96
2019-03-05T16:54:18.194Z,100549.50
2019-03-05T16:57:12.550Z,100557.91
2019-03-05T16:59:56.774Z,100565.83
2019-03-05T17:02:45.226Z,100558.55
2019-03-05T17:05:34.009Z,100555.15
2019-03-05T17:08:34.387Z,100560.62
2019-03-05T17:11:21.080Z,100556.83
2019-03-05T17:13:50.608Z,100566.70
2019-03-05T17:16:20.364Z,100563.17
2019-03-05T17:18:49.816Z,100565.98
2019-03-05T17:21:27.007Z,100568.44
2019-03-05T17:23:49.651Z,100573.25
2019-03-05T17:26:18.718Z,100575.94
2019-03-05T17:28:48.149Z,100579.05
2019-03-05T17:31:17.229Z,100574.30
2019-03-05T17:33:46.772Z,100571.22
2019-03-05T17:36:16.294Z,100576.27
2019-03-05T17:38:45.456Z,100579.73
2019-03-05T17:41:14.691Z,100578.30
2019-03-05T17:43:43.896Z,100573.81
2019-03-05T17:46:13.300Z,100576.41
2019-03-05T17:48:42.918Z,100575.63
2019-03-05T17:51:12.503Z,100575.37
2019-03-05T17:53:41.711Z,100573.03
2019-03-05T17:56:11.488Z,100570.39
2019-03-05T17:58:40.662Z,100576.78
2019-03-05T18:01:10.517Z,100572.34
2019-03-05T18:03:39.855Z,100574.06
2019-03-05T18:06:09.046Z,100573.80
2019-03-05T18:08:38.323Z,100581.77
2019-03-05T18:11:07.969Z,100580.42
2019-03-05T18:13:38.826Z,100580.59
2019-03-05T18:16:07.913Z,100591.33
2019-03-05T18:18:36.953Z,100591.67
2019-03-05T18:21:07.729Z,100590.80
2019-03-05T18:23:36.908Z,100590.50
2019-03-05T18:26:06.188Z,100594.78
2019-03-05T18:28:35.322Z,100600.14
2019-03-05T18:31:04.488Z,100600.83
2019-03-05T18:33:33.913Z,100597.77
2019-03-05T18:36:03.063Z,100606.09
2019-03-05T18:38:33.032Z,100607.61
2019-03-05T18:41:02.537Z,100602.83
2019-03-05T18:43:31.633Z,100605.31
2019-03-05T18:46:00.747Z,100602.41
2019-03-05T18:48:29.838Z,100604.58
2019-03-05T18:51:00.607Z,100599.73
2019-03-05T18:53:30.050Z,100597.03
2019-03-05T18:55:59.632Z,100592.81
2019-03-05T18:58:28.659Z,100590.13
2019-03-05T19:00:57.676Z,100591.16
2019-03-05T19:03:26.930Z,100586.29
2019-03-05T19:05:56.460Z,100587.14
2019-03-05T19:08:25.740Z,100593.95
2019-03-05T19:10:55.294Z,100595.20
2019-03-05T19:13:24.361Z,100599.53
2019-03-05T19:15:53.416Z,100573.27
2019-03-05T19:18:22.638Z,100582.38
2019-03-05T19:20:51.784Z,100584.75
2019-03-05T19:23:20.873Z,100584.47
2019-03-05T19:25:50.365Z,100590.50
2019-03-05T19:28:19.430Z,100583.95
2019-03-05T19:30:48.896Z,100594.75
2019-03-05T19:33:18.448Z,100583.81
2019-03-05T19:35:48.252Z,100590.73
2019-03-05T19:38:17.574Z,100583.13
2019-03-05T19:40:46.981Z,100581.12
2019-03-05T19:43:16.340Z,100582.08
2019-03-05T19:45:45.401Z,100583.18
2019-03-05T19:48:14.525Z,100583.73
2019-03-05T19:50:44.414Z,100571.11
2019-03-05T19:53:13.920Z,100570.98
2019-03-05T19:55:43.236Z,100567.09
2019-03-05T19:58:13.177Z,100563.63
2019-03-05T20:01:00.338Z,100566.12
2019-03-05T20:03:29.398Z,100562.13
2019-03-05T20:05:58.461Z,100564.15
2019-03-05T20:08:28.192Z,100560.57
2019-03-05T20:10:58.253Z,100563.24
2019-03-05T20:13:27.350Z,100561.59
2019-03-05T20:15:56.498Z,100570.45
2019-03-05T20:18:25.567Z,100567.23
2019-03-05T20:20:54.644Z,100565.07
2019-03-05T20:23:26.048Z,100564.75
2019-03-05T20:25:55.646Z,100559.11
2019-03-05T20:28:24.722Z,100556.44
2019-03-05T20:30:53.808Z,100564.19
2019-03-05T20:33:22.933Z,100554.16
2019-03-05T20:35:52.261Z,100564.47
2019-03-05T20:38:21.882Z,100559.00
2019-03-05T20:40:51.006Z,100554.66
2019-03-05T20:43:20.046Z,100550.80
2019-03-05T20:45:49.985Z,100552.34
2019-03-05T20:48:19.465Z,100554.91
2019-03-05T20:50:48.590Z,100554.20
2019-03-05T20:53:18.283Z,100553.81
2019-03-05T20:55:47.501Z,100549.05
2019-03-05T20:58:16.648Z,100546.91
2019-03-05T21:00:45.993Z,100545.58
2019-03-05T21:03:15.372Z,100543.02
2019-03-05T21:05:44.619Z,100543.58
2019-03-05T21:08:13.797Z,100539.71
2019-03-05T21:10:43.322Z,100536.23
2019-03-05T21:13:12.521Z,100529.56
2019-03-05T21:15:42.138Z,100532.06
2019-03-05T21:18:11.231Z,100525.54
2019-03-05T21:20:40.655Z,100526.56
2019-03-05T21:23:10.020Z,100492.86
2019-03-05T21:25:39.153Z,100517.57
2019-03-05T21:28:08.341Z,100520.23
2019-03-05T21:30:37.798Z,100515.56
2019-03-05T21:33:06.834Z,100503.50
2019-03-05T21:35:36.255Z,100503.86
2019-03-05T21:38:05.574Z,100502.17
2019-03-05T21:40:35.211Z,100502.51
2019-03-05T21:43:04.302Z,100504.46
2019-03-05T21:45:35.253Z,100503.47
2019-03-05T21:48:04.796Z,100498.74
2019-03-05T21:50:34.065Z,100492.73
2019-03-05T21:53:03.521Z,100488.11
2019-03-05T21:55:33.020Z,100498.80
2019-03-05T21:58:02.570Z,100496.16
2019-03-05T22:00:32.728Z,100498.30
2019-03-05T22:03:02.509Z,100496.80
2019-03-05T22:05:32.121Z,100488.94
2019-03-05T22:08:01.739Z,100483.42
2019-03-05T22:10:31.098Z,100484.76
2019-03-05T22:13:00.248Z,100485.75
2019-03-05T22:15:29.699Z,100480.52
2019-03-05T22:17:58.953Z,100485.72
2019-03-05T22:20:28.147Z,100471.11
2019-03-05T22:22:57.567Z,100480.03
2019-03-05T22:25:28.866Z,100483.00
2019-03-05T22:27:57.918Z,100473.16
2019-03-05T22:30:27.863Z,100476.10
2019-03-05T22:32:56.912Z,100473.25
2019-03-05T22:35:26.169Z,100473.59
2019-03-05T22:37:55.334Z,100468.92
2019-03-05T22:40:24.675Z,100479.75
2019-03-05T22:42:54.373Z,100467.17
2019-03-05T22:45:24.505Z,100463.80
2019-03-05T22:47:53.739Z,100459.19
2019-03-05T22:50:22.903Z,100454.16
2019-03-05T22:52:52.062Z,100452.76
2019-03-05T22:55:21.157Z,100451.11
2019-03-05T22:57:50.358Z,100452.08
2019-03-05T23:00:45.011Z,100447.09
2019-03-05T23:03:14.429Z,100441.06
2019-03-05T23:05:43.506Z,100454.58
2019-03-05T23:08:12.578Z,100444.56
2019-03-05T23:10:41.645Z,100436.94
2019-03-05T23:13:10.697Z,100434.61
2019-03-05T23:15:40.478Z,100429.55
2019-03-05T23:18:09.883Z,100427.97
2019-03-05T23:20:39.311Z,100422.38
2019-03-05T23:23:08.362Z,100422.21
2019-03-05T23:25:37.409Z,100417.08
2019-03-05T23:28:07.615Z,100414.83
2019-03-05T23:30:36.829Z,100406.11
2019-03-05T23:33:06.339Z,100402.74
2019-03-05T23:35:35.705Z,100394.02
2019-03-05T23:38:05.272Z,100394.76
2019-03-05T23:40:34.425Z,100392.20
2019-03-05T23:43:03.855Z,100394.75
2019-03-05T23:45:32.859Z,100378.91
2019-03-05T23:48:02.011Z,100372.94
2019-03-05T23:50:31.413Z,100381.36
2019-03-05T23:53:00.860Z,100373.63
2019-03-05T23:55:30.653Z,100368.36
2019-03-05T23:57:59.767Z,100367.59
